sensor_id;sensor_type;location;lat;lon;timestamp;pressure;altitude;pressure_sealevel;temperature;humidity
43155;BME280;34212;51.018;13.586;2023-07-31T00:02:02;97613.03;;;17.35;70.72
43155;BME280;34212;51.018;13.586;2023-07-31T00:07:04;97606.81;;;17.35;70.35
43155;BME280;34212;51.018;13.586;2023-07-31T00:12:07;97612.44;;;17.33;70.33
43155;BME280;34212;51.018;13.586;2023-07-31T00:17:09;97611.38;;;17.34;70.22
43155;BME280;34212;51.018;13.586;2023-07-31T00:22:10;97608.47;;;17.36;70.48
43155;BME280;34212;51.018;13.586;2023-07-31T00:27:12;97600.38;;;17.36;70.53
43155;BME280;34212;51.018;13.586;2023-07-31T00:32:13;97603.91;;;17.36;70.72
43155;BME280;34212;51.018;13.586;2023-07-31T00:37:15;97593.13;;;17.36;70.67
43155;BME280;34212;51.018;13.586;2023-07-31T00:42:17;97586.06;;;17.35;70.86
43155;BME280;34212;51.018;13.586;2023-07-31T00:47:18;97585.03;;;17.36;70.90
43155;BME280;34212;51.018;13.586;2023-07-31T00:52:20;97580.69;;;17.35;70.76
43155;BME280;34212;51.018;13.586;2023-07-31T00:57:21;97573.66;;;17.34;70.84
43155;BME280;34212;51.018;13.586;2023-07-31T01:02:25;97576.34;;;17.34;70.88
43155;BME280;34212;51.018;13.586;2023-07-31T01:07:33;97569.91;;;17.35;70.92
43155;BME280;34212;51.018;13.586;2023-07-31T01:12:38;97561.59;;;17.37;70.47
43155;BME280;34212;51.018;13.586;2023-07-31T01:17:42;97557.03;;;17.37;70.68
43155;BME280;34212;51.018;13.586;2023-07-31T01:22:58;97557.84;;;17.38;70.38
43155;BME280;34212;51.018;13.586;2023-07-31T01:28:11;97557.03;;;17.37;70.38
43155;BME280;34212;51.018;13.586;2023-07-31T01:33:15;97564.91;;;17.39;70.37
43155;BME280;34212;51.018;13.586;2023-07-31T01:38:20;97547.41;;;17.41;70.05
43155;BME280;34212;51.018;13.586;2023-07-31T01:43:23;97545.09;;;17.45;70.25
43155;BME280;34212;51.018;13.586;2023-07-31T01:48:25;97537.38;;;17.48;70.22
43155;BME280;34212;51.018;13.586;2023-07-31T01:53:27;97538.56;;;17.52;69.81
43155;BME280;34212;51.018;13.586;2023-07-31T01:58:28;97532.47;;;17.57;69.94
43155;BME280;34212;51.018;13.586;2023-07-31T02:03:30;97530.97;;;17.61;69.76
43155;BME280;34212;51.018;13.586;2023-07-31T02:08:31;97522.16;;;17.66;69.46
43155;BME280;34212;51.018;13.586;2023-07-31T02:13:33;97518.78;;;17.70;69.56
43155;BME280;34212;51.018;13.586;2023-07-31T02:18:34;97515.38;;;17.75;69.42
43155;BME280;34212;51.018;13.586;2023-07-31T02:23:36;97516.81;;;17.77;68.97
43155;BME280;34212;51.018;13.586;2023-07-31T02:28:37;97520.56;;;17.76;69.16
43155;BME280;34212;51.018;13.586;2023-07-31T02:33:39;97516.66;;;17.72;68.97
43155;BME280;34212;51.018;13.586;2023-07-31T02:38:40;97514.66;;;17.68;68.90
43155;BME280;34212;51.018;13.586;2023-07-31T02:43:42;97516.78;;;17.66;68.62
43155;BME280;34212;51.018;13.586;2023-07-31T02:48:43;97514.31;;;17.64;69.09
43155;BME280;34212;51.018;13.586;2023-07-31T02:53:45;97506.91;;;17.60;68.76
43155;BME280;34212;51.018;13.586;2023-07-31T02:58:46;97514.44;;;17.58;68.83
43155;BME280;34212;51.018;13.586;2023-07-31T03:03:48;97513.22;;;17.53;68.59
43155;BME280;34212;51.018;13.586;2023-07-31T03:08:49;97522.38;;;17.52;68.88
43155;BME280;34212;51.018;13.586;2023-07-31T03:13:51;97518.63;;;17.53;68.71
43155;BME280;34212;51.018;13.586;2023-07-31T03:18:52;97536.09;;;17.51;69.02
43155;BME280;34212;51.018;13.586;2023-07-31T03:23:54;97537.38;;;17.48;69.46
43155;BME280;34212;51.018;13.586;2023-07-31T03:28:55;97530.44;;;17.41;70.08
43155;BME280;34212;51.018;13.586;2023-07-31T03:33:57;97539.22;;;17.36;71.26
43155;BME280;34212;51.018;13.586;2023-07-31T03:38:58;97534.50;;;17.31;71.99
43155;BME280;34212;51.018;13.586;2023-07-31T03:44:00;97529.22;;;17.25;72.78
43155;BME280;34212;51.018;13.586;2023-07-31T03:49:02;97523.25;;;17.23;73.49
43155;BME280;34212;51.018;13.586;2023-07-31T03:54:04;97521.94;;;17.25;73.90
43155;BME280;34212;51.018;13.586;2023-07-31T03:59:06;97523.59;;;17.26;74.29
43155;BME280;34212;51.018;13.586;2023-07-31T04:04:07;97512.00;;;17.26;74.81
43155;BME280;34212;51.018;13.586;2023-07-31T04:09:09;97503.94;;;17.26;74.87
43155;BME280;34212;51.018;13.586;2023-07-31T04:14:10;97499.56;;;17.25;75.21
43155;BME280;34212;51.018;13.586;2023-07-31T04:19:12;97493.81;;;17.21;75.54
43155;BME280;34212;51.018;13.586;2023-07-31T04:24:17;97492.19;;;17.20;75.83
43155;BME280;34212;51.018;13.586;2023-07-31T04:29:25;97484.31;;;17.19;76.04
43155;BME280;34212;51.018;13.586;2023-07-31T04:34:27;97473.53;;;17.19;76.30
43155;BME280;34212;51.018;13.586;2023-07-31T04:39:28;97471.44;;;17.21;76.47
43155;BME280;34212;51.018;13.586;2023-07-31T04:44:29;97463.13;;;17.22;76.86
43155;BME280;34212;51.018;13.586;2023-07-31T04:49:32;97459.16;;;17.25;76.93
43155;BME280;34212;51.018;13.586;2023-07-31T04:54:33;97468.03;;;17.25;77.03
43155;BME280;34212;51.018;13.586;2023-07-31T04:59:35;97458.94;;;17.26;77.17
43155;BME280;34212;51.018;13.586;2023-07-31T05:04:36;97461.38;;;17.28;77.26
43155;BME280;34212;51.018;13.586;2023-07-31T05:09:38;97457.41;;;17.30;77.53
43155;BME280;34212;51.018;13.586;2023-07-31T05:14:40;97458.56;;;17.35;77.51
43155;BME280;34212;51.018;13.586;2023-07-31T05:19:42;97448.16;;;17.38;77.66
43155;BME280;34212;51.018;13.586;2023-07-31T05:24:43;97442.91;;;17.43;77.83
43155;BME280;34212;51.018;13.586;2023-07-31T05:29:45;97445.72;;;17.48;77.78
43155;BME280;34212;51.018;13.586;2023-07-31T05:34:46;97445.25;;;17.51;78.03
43155;BME280;34212;51.018;13.586;2023-07-31T05:39:49;97433.19;;;17.54;78.28
43155;BME280;34212;51.018;13.586;2023-07-31T05:44:50;97436.25;;;17.58;78.30
43155;BME280;34212;51.018;13.586;2023-07-31T05:49:52;97451.22;;;17.65;78.01
43155;BME280;34212;51.018;13.586;2023-07-31T05:54:54;97439.50;;;17.71;78.21
43155;BME280;34212;51.018;13.586;2023-07-31T05:59:55;97441.09;;;17.79;78.12
43155;BME280;34212;51.018;13.586;2023-07-31T06:04:56;97437.44;;;17.85;78.02
43155;BME280;34212;51.018;13.586;2023-07-31T06:09:58;97445.63;;;17.90;78.21
43155;BME280;34212;51.018;13.586;2023-07-31T06:15:06;97444.22;;;17.99;78.12
43155;BME280;34212;51.018;13.586;2023-07-31T06:20:07;97440.59;;;18.06;77.90
43155;BME280;34212;51.018;13.586;2023-07-31T06:25:09;97450.44;;;18.12;77.82
43155;BME280;34212;51.018;13.586;2023-07-31T06:30:15;97445.63;;;18.14;77.96
43155;BME280;34212;51.018;13.586;2023-07-31T06:35:17;97447.38;;;18.20;77.80
43155;BME280;34212;51.018;13.586;2023-07-31T06:40:18;97441.59;;;18.28;77.92
43155;BME280;34212;51.018;13.586;2023-07-31T06:45:20;97439.13;;;18.38;77.49
43155;BME280;34212;51.018;13.586;2023-07-31T06:50:23;97444.72;;;18.49;77.82
43155;BME280;34212;51.018;13.586;2023-07-31T06:55:26;97435.66;;;18.55;77.42
43155;BME280;34212;51.018;13.586;2023-07-31T07:00:27;97444.94;;;18.59;77.06
43155;BME280;34212;51.018;13.586;2023-07-31T07:05:29;97448.66;;;18.69;77.32
43155;BME280;34212;51.018;13.586;2023-07-31T07:10:31;97444.28;;;18.80;77.10
43155;BME280;34212;51.018;13.586;2023-07-31T07:15:32;97452.09;;;18.93;76.84
43155;BME280;34212;51.018;13.586;2023-07-31T07:20:34;97450.75;;;19.08;76.91
43155;BME280;34212;51.018;13.586;2023-07-31T07:25:37;97444.81;;;19.23;76.68
43155;BME280;34212;51.018;13.586;2023-07-31T07:30:39;97453.41;;;19.36;76.41
43155;BME280;34212;51.018;13.586;2023-07-31T07:35:41;97441.69;;;19.48;76.23
43155;BME280;34212;51.018;13.586;2023-07-31T07:40:42;97439.97;;;19.58;76.46
43155;BME280;34212;51.018;13.586;2023-07-31T07:45:44;97444.66;;;19.63;75.96
43155;BME280;34212;51.018;13.586;2023-07-31T07:50:45;97446.31;;;19.64;75.57
43155;BME280;34212;51.018;13.586;2023-07-31T07:55:47;97456.06;;;19.65;75.28
43155;BME280;34212;51.018;13.586;2023-07-31T08:00:50;97445.91;;;19.72;75.09
43155;BME280;34212;51.018;13.586;2023-07-31T08:05:52;97460.50;;;19.88;74.93
43155;BME280;34212;51.018;13.586;2023-07-31T08:10:54;97450.94;;;20.02;74.30
43155;BME280;34212;51.018;13.586;2023-07-31T08:15:55;97456.25;;;20.14;73.57
43155;BME280;34212;51.018;13.586;2023-07-31T08:20:57;97464.38;;;20.14;72.59
43155;BME280;34212;51.018;13.586;2023-07-31T08:25:58;97472.66;;;20.07;72.62
43155;BME280;34212;51.018;13.586;2023-07-31T08:31:00;97466.28;;;19.97;72.45
43155;BME280;34212;51.018;13.586;2023-07-31T08:36:02;97463.19;;;19.88;72.20
43155;BME280;34212;51.018;13.586;2023-07-31T08:41:03;97476.13;;;19.86;72.26
43155;BME280;34212;51.018;13.586;2023-07-31T08:46:06;97466.13;;;19.87;72.16
43155;BME280;34212;51.018;13.586;2023-07-31T08:51:08;97462.88;;;19.84;71.59
43155;BME280;34212;51.018;13.586;2023-07-31T08:56:11;97455.31;;;19.87;71.36
43155;BME280;34212;51.018;13.586;2023-07-31T09:01:14;97462.28;;;19.82;71.32
43155;BME280;34212;51.018;13.586;2023-07-31T09:06:18;97454.66;;;19.79;71.52
43155;BME280;34212;51.018;13.586;2023-07-31T09:11:23;97455.75;;;19.78;70.98
43155;BME280;34212;51.018;13.586;2023-07-31T09:16:29;97455.00;;;19.83;71.18
43155;BME280;34212;51.018;13.586;2023-07-31T09:21:47;97456.97;;;19.88;70.76
43155;BME280;34212;51.018;13.586;2023-07-31T09:26:53;97441.03;;;19.91;70.76
43155;BME280;34212;51.018;13.586;2023-07-31T09:31:55;97441.38;;;19.95;70.79
43155;BME280;34212;51.018;13.586;2023-07-31T09:37:01;97438.41;;;19.96;70.46
43155;BME280;34212;51.018;13.586;2023-07-31T09:42:03;97431.66;;;19.99;70.69
43155;BME280;34212;51.018;13.586;2023-07-31T09:47:05;97437.41;;;20.02;70.33
43155;BME280;34212;51.018;13.586;2023-07-31T09:52:11;97434.34;;;20.16;70.25
43155;BME280;34212;51.018;13.586;2023-07-31T09:57:16;97418.22;;;20.26;70.25
43155;BME280;34212;51.018;13.586;2023-07-31T10:02:21;97429.44;;;20.35;70.00
43155;BME280;34212;51.018;13.586;2023-07-31T10:07:25;97423.03;;;20.41;69.81
43155;BME280;34212;51.018;13.586;2023-07-31T10:12:27;97414.72;;;20.47;69.21
43155;BME280;34212;51.018;13.586;2023-07-31T10:17:30;97410.25;;;20.58;69.24
43155;BME280;34212;51.018;13.586;2023-07-31T10:22:35;97410.94;;;20.70;68.72
43155;BME280;34212;51.018;13.586;2023-07-31T10:27:40;97399.66;;;20.79;68.15
43155;BME280;34212;51.018;13.586;2023-07-31T10:32:43;97387.81;;;20.90;68.21
43155;BME280;34212;51.018;13.586;2023-07-31T10:37:45;97388.53;;;21.07;68.47
43155;BME280;34212;51.018;13.586;2023-07-31T10:42:51;97375.09;;;21.22;67.56
43155;BME280;34212;51.018;13.586;2023-07-31T10:48:01;97361.72;;;21.43;67.01
43155;BME280;34212;51.018;13.586;2023-07-31T10:53:03;97371.56;;;21.54;66.89
43155;BME280;34212;51.018;13.586;2023-07-31T10:58:10;97364.81;;;21.57;66.54
43155;BME280;34212;51.018;13.586;2023-07-31T11:03:17;97370.75;;;21.54;66.20
43155;BME280;34212;51.018;13.586;2023-07-31T11:08:24;97372.63;;;21.48;66.29
43155;BME280;34212;51.018;13.586;2023-07-31T11:13:27;97377.47;;;21.41;67.33
43155;BME280;34212;51.018;13.586;2023-07-31T11:18:28;97368.38;;;21.30;68.41
43155;BME280;34212;51.018;13.586;2023-07-31T11:23:30;97364.84;;;21.30;68.44
43155;BME280;34212;51.018;13.586;2023-07-31T11:28:32;97363.63;;;21.42;69.59
43155;BME280;34212;51.018;13.586;2023-07-31T11:33:35;97360.25;;;21.62;69.28
43155;BME280;34212;51.018;13.586;2023-07-31T11:38:36;97347.66;;;21.94;68.76
43155;BME280;34212;51.018;13.586;2023-07-31T11:43:38;97348.66;;;22.25;68.33
43155;BME280;34212;51.018;13.586;2023-07-31T11:48:39;97332.94;;;22.47;69.53
43155;BME280;34212;51.018;13.586;2023-07-31T11:53:42;97353.63;;;22.58;67.09
43155;BME280;34212;51.018;13.586;2023-07-31T11:58:46;97327.03;;;22.66;65.99
43155;BME280;34212;51.018;13.586;2023-07-31T12:03:51;97323.22;;;22.77;65.55
43155;BME280;34212;51.018;13.586;2023-07-31T12:09:00;97302.56;;;22.81;65.24
43155;BME280;34212;51.018;13.586;2023-07-31T12:14:04;97321.03;;;22.89;64.48
43155;BME280;34212;51.018;13.586;2023-07-31T12:19:06;97307.72;;;22.93;63.85
43155;BME280;34212;51.018;13.586;2023-07-31T12:24:08;97307.78;;;22.98;63.32
43155;BME280;34212;51.018;13.586;2023-07-31T12:29:09;97290.06;;;23.26;63.16
43155;BME280;34212;51.018;13.586;2023-07-31T12:34:18;97282.63;;;23.67;63.76
43155;BME280;34212;51.018;13.586;2023-07-31T12:39:19;97287.25;;;23.87;62.55
43155;BME280;34212;51.018;13.586;2023-07-31T12:44:21;97279.31;;;23.96;59.63
43155;BME280;34212;51.018;13.586;2023-07-31T12:49:23;97262.69;;;23.92;60.29
43155;BME280;34212;51.018;13.586;2023-07-31T12:54:24;97252.66;;;23.83;61.75
43155;BME280;34212;51.018;13.586;2023-07-31T12:59:26;97248.88;;;23.73;61.42
43155;BME280;34212;51.018;13.586;2023-07-31T13:04:27;97245.66;;;23.71;59.96
43155;BME280;34212;51.018;13.586;2023-07-31T13:09:29;97243.19;;;23.65;59.88
43155;BME280;34212;51.018;13.586;2023-07-31T13:14:31;97249.19;;;23.57;60.14
43155;BME280;34212;51.018;13.586;2023-07-31T13:19:32;97233.97;;;23.50;61.42
43155;BME280;34212;51.018;13.586;2023-07-31T13:24:34;97233.47;;;23.43;60.77
43155;BME280;34212;51.018;13.586;2023-07-31T13:29:35;97236.16;;;23.48;62.20
43155;BME280;34212;51.018;13.586;2023-07-31T13:34:37;97238.88;;;23.54;60.86
43155;BME280;34212;51.018;13.586;2023-07-31T13:39:39;97208.34;;;23.72;59.60
43155;BME280;34212;51.018;13.586;2023-07-31T13:44:42;97210.03;;;24.17;59.06
43155;BME280;34212;51.018;13.586;2023-07-31T13:49:43;97211.47;;;24.49;58.14
43155;BME280;34212;51.018;13.586;2023-07-31T13:54:45;97182.66;;;24.72;58.72
43155;BME280;34212;51.018;13.586;2023-07-31T13:59:46;97194.03;;;24.79;57.65
43155;BME280;34212;51.018;13.586;2023-07-31T14:04:48;97188.91;;;24.73;59.09
43155;BME280;34212;51.018;13.586;2023-07-31T14:09:49;97206.47;;;24.61;57.70
43155;BME280;34212;51.018;13.586;2023-07-31T14:14:51;97203.03;;;24.80;59.74
43155;BME280;34212;51.018;13.586;2023-07-31T14:19:52;97202.31;;;24.98;58.29
43155;BME280;34212;51.018;13.586;2023-07-31T14:24:54;97201.41;;;25.08;57.19
43155;BME280;34212;51.018;13.586;2023-07-31T14:29:55;97183.78;;;24.95;58.66
43155;BME280;34212;51.018;13.586;2023-07-31T14:34:58;97185.81;;;24.84;57.52
43155;BME280;34212;51.018;13.586;2023-07-31T14:39:59;97180.16;;;24.76;57.10
43155;BME280;34212;51.018;13.586;2023-07-31T14:45:01;97182.44;;;24.63;58.47
43155;BME280;34212;51.018;13.586;2023-07-31T14:50:03;97171.84;;;24.62;56.52
43155;BME280;34212;51.018;13.586;2023-07-31T14:55:05;97171.13;;;24.80;56.65
43155;BME280;34212;51.018;13.586;2023-07-31T15:00:07;97167.03;;;24.83;55.91
43155;BME280;34212;51.018;13.586;2023-07-31T15:05:09;97172.88;;;24.66;56.47
43155;BME280;34212;51.018;13.586;2023-07-31T15:10:11;97154.47;;;24.53;58.18
43155;BME280;34212;51.018;13.586;2023-07-31T15:15:14;97164.34;;;24.43;56.67
43155;BME280;34212;51.018;13.586;2023-07-31T15:20:16;97169.28;;;24.36;56.12
43155;BME280;34212;51.018;13.586;2023-07-31T15:25:18;97166.06;;;24.29;56.16
43155;BME280;34212;51.018;13.586;2023-07-31T15:30:19;97168.31;;;24.17;58.06
43155;BME280;34212;51.018;13.586;2023-07-31T15:35:21;97162.16;;;24.01;58.07
43155;BME280;34212;51.018;13.586;2023-07-31T15:40:23;97162.47;;;23.94;57.92
43155;BME280;34212;51.018;13.586;2023-07-31T15:45:24;97162.56;;;23.84;58.80
43155;BME280;34212;51.018;13.586;2023-07-31T15:50:26;97167.78;;;23.65;58.86
43155;BME280;34212;51.018;13.586;2023-07-31T15:55:27;97152.34;;;23.50;59.19
43155;BME280;34212;51.018;13.586;2023-07-31T16:00:29;97157.28;;;23.38;58.28
43155;BME280;34212;51.018;13.586;2023-07-31T16:05:30;97154.63;;;23.28;57.30
43155;BME280;34212;51.018;13.586;2023-07-31T16:10:32;97148.13;;;23.19;57.22
43155;BME280;34212;51.018;13.586;2023-07-31T16:15:33;97141.34;;;23.06;57.77
43155;BME280;34212;51.018;13.586;2023-07-31T16:20:35;97144.59;;;22.93;57.00
43155;BME280;34212;51.018;13.586;2023-07-31T16:25:37;97147.06;;;22.89;56.20
43155;BME280;34212;51.018;13.586;2023-07-31T16:30:38;97151.44;;;22.85;55.63
43155;BME280;34212;51.018;13.586;2023-07-31T16:35:40;97146.53;;;22.82;56.21
43155;BME280;34212;51.018;13.586;2023-07-31T16:40:41;97150.34;;;22.76;55.96
43155;BME280;34212;51.018;13.586;2023-07-31T16:45:43;97146.00;;;22.70;55.71
43155;BME280;34212;51.018;13.586;2023-07-31T16:50:44;97141.66;;;22.69;56.88
43155;BME280;34212;51.018;13.586;2023-07-31T16:55:46;97143.84;;;22.67;56.80
43155;BME280;34212;51.018;13.586;2023-07-31T17:00:47;97138.41;;;22.67;56.98
43155;BME280;34212;51.018;13.586;2023-07-31T17:05:49;97131.34;;;22.66;58.07
43155;BME280;34212;51.018;13.586;2023-07-31T17:10:50;97139.22;;;22.57;57.95
43155;BME280;34212;51.018;13.586;2023-07-31T17:15:52;97135.69;;;22.51;57.77
43155;BME280;34212;51.018;13.586;2023-07-31T17:20:53;97127.56;;;22.46;57.88
43155;BME280;34212;51.018;13.586;2023-07-31T17:25:55;97121.31;;;22.46;57.94
43155;BME280;34212;51.018;13.586;2023-07-31T17:30:56;97108.25;;;22.48;58.28
43155;BME280;34212;51.018;13.586;2023-07-31T17:35:58;97110.72;;;22.49;58.39
43155;BME280;34212;51.018;13.586;2023-07-31T17:40:59;97102.28;;;22.51;58.57
43155;BME280;34212;51.018;13.586;2023-07-31T17:46:02;97102.84;;;22.53;58.79
43155;BME280;34212;51.018;13.586;2023-07-31T17:51:04;97093.88;;;22.52;58.86
43155;BME280;34212;51.018;13.586;2023-07-31T17:56:05;97088.44;;;22.52;59.16
43155;BME280;34212;51.018;13.586;2023-07-31T18:01:07;97094.94;;;22.51;60.16
43155;BME280;34212;51.018;13.586;2023-07-31T18:06:08;97112.34;;;22.45;60.15
43155;BME280;34212;51.018;13.586;2023-07-31T18:11:10;97109.91;;;22.39;60.03
43155;BME280;34212;51.018;13.586;2023-07-31T18:16:11;97099.03;;;22.33;60.02
43155;BME280;34212;51.018;13.586;2023-07-31T18:21:13;97091.16;;;22.27;60.11
43155;BME280;34212;51.018;13.586;2023-07-31T18:26:14;97086.81;;;22.21;60.27
43155;BME280;34212;51.018;13.586;2023-07-31T18:31:16;97085.75;;;22.17;60.29
43155;BME280;34212;51.018;13.586;2023-07-31T18:36:17;97082.97;;;22.11;61.40
43155;BME280;34212;51.018;13.586;2023-07-31T18:41:19;97087.06;;;22.04;61.41
43155;BME280;34212;51.018;13.586;2023-07-31T18:46:21;97091.69;;;21.98;61.20
43155;BME280;34212;51.018;13.586;2023-07-31T18:51:23;97091.13;;;21.96;61.26
43155;BME280;34212;51.018;13.586;2023-07-31T18:56:24;97088.94;;;21.93;61.12
43155;BME280;34212;51.018;13.586;2023-07-31T19:06:27;97071.88;;;21.87;60.78
43155;BME280;34212;51.018;13.586;2023-07-31T19:11:29;97062.34;;;21.85;60.93
43155;BME280;34212;51.018;13.586;2023-07-31T19:16:33;97061.81;;;21.83;60.91
43155;BME280;34212;51.018;13.586;2023-07-31T19:21:35;97057.72;;;21.80;60.94
43155;BME280;34212;51.018;13.586;2023-07-31T19:26:36;97066.69;;;21.76;61.05
43155;BME280;34212;51.018;13.586;2023-07-31T19:31:39;97044.16;;;21.70;60.84
43155;BME280;34212;51.018;13.586;2023-07-31T19:36:40;97043.88;;;21.66;61.87
43155;BME280;34212;51.018;13.586;2023-07-31T19:41:43;97062.84;;;21.61;61.48
43155;BME280;34212;51.018;13.586;2023-07-31T19:46:45;97044.69;;;21.57;61.27
43155;BME280;34212;51.018;13.586;2023-07-31T19:51:46;97035.19;;;21.54;61.25
43155;BME280;34212;51.018;13.586;2023-07-31T19:56:48;97024.88;;;21.51;61.08
43155;BME280;34212;51.018;13.586;2023-07-31T20:01:50;97021.34;;;21.51;61.03
43155;BME280;34212;51.018;13.586;2023-07-31T20:06:52;97016.47;;;21.48;60.86
43155;BME280;34212;51.018;13.586;2023-07-31T20:11:53;97003.69;;;21.43;60.87
43155;BME280;34212;51.018;13.586;2023-07-31T20:16:56;97001.50;;;21.40;60.84
43155;BME280;34212;51.018;13.586;2023-07-31T20:21:58;96990.13;;;21.38;60.91
43155;BME280;34212;51.018;13.586;2023-07-31T20:26:59;96984.16;;;21.36;60.98
43155;BME280;34212;51.018;13.586;2023-07-31T20:32:01;96975.22;;;21.35;60.94
43155;BME280;34212;51.018;13.586;2023-07-31T20:37:02;96965.44;;;21.34;60.83
43155;BME280;34212;51.018;13.586;2023-07-31T20:42:04;96957.03;;;21.36;60.92
43155;BME280;34212;51.018;13.586;2023-07-31T20:47:06;96962.47;;;21.36;61.23
43155;BME280;34212;51.018;13.586;2023-07-31T20:52:08;96963.78;;;21.33;60.93
43155;BME280;34212;51.018;13.586;2023-07-31T20:57:09;96948.03;;;21.30;61.00
43155;BME280;34212;51.018;13.586;2023-07-31T21:02:11;96931.25;;;21.28;60.96
43155;BME280;34212;51.018;13.586;2023-07-31T21:07:12;96927.19;;;21.26;61.13
43155;BME280;34212;51.018;13.586;2023-07-31T21:12:16;96921.75;;;21.20;60.87
43155;BME280;34212;51.018;13.586;2023-07-31T21:17:17;96919.56;;;21.17;61.08
43155;BME280;34212;51.018;13.586;2023-07-31T21:22:19;96906.00;;;21.17;61.10
43155;BME280;34212;51.018;13.586;2023-07-31T21:27:20;96901.69;;;21.16;61.21
43155;BME280;34212;51.018;13.586;2023-07-31T21:32:22;96904.94;;;21.13;61.15
43155;BME280;34212;51.018;13.586;2023-07-31T21:37:23;96893.53;;;21.11;61.08
43155;BME280;34212;51.018;13.586;2023-07-31T21:42:25;96882.16;;;21.09;61.06
43155;BME280;34212;51.018;13.586;2023-07-31T21:47:26;96888.66;;;21.08;60.92
43155;BME280;34212;51.018;13.586;2023-07-31T21:52:28;96882.69;;;21.06;61.18
43155;BME280;34212;51.018;13.586;2023-07-31T21:57:29;96881.88;;;21.06;61.15
43155;BME280;34212;51.018;13.586;2023-07-31T22:02:31;96869.41;;;21.05;61.18
43155;BME280;34212;51.018;13.586;2023-07-31T22:07:33;96866.69;;;21.05;61.88
43155;BME280;34212;51.018;13.586;2023-07-31T22:12:34;96873.22;;;21.04;61.43
43155;BME280;34212;51.018;13.586;2023-07-31T22:17:36;96866.44;;;21.06;61.20
43155;BME280;34212;51.018;13.586;2023-07-31T22:22:37;96868.88;;;21.08;61.24
43155;BME280;34212;51.018;13.586;2023-07-31T22:27:39;96854.75;;;21.06;61.20
43155;BME280;34212;51.018;13.586;2023-07-31T22:32:40;96863.19;;;21.04;61.27
43155;BME280;34212;51.018;13.586;2023-07-31T22:37:42;96850.16;;;21.01;61.59
43155;BME280;34212;51.018;13.586;2023-07-31T22:42:43;96846.91;;;20.99;62.03
43155;BME280;34212;51.018;13.586;2023-07-31T22:47:45;96848.53;;;20.95;62.00
43155;BME280;34212;51.018;13.586;2023-07-31T22:52:46;96838.75;;;20.89;62.67
43155;BME280;34212;51.018;13.586;2023-07-31T22:57:50;96820.84;;;20.77;63.01
43155;BME280;34212;51.018;13.586;2023-07-31T23:02:52;96838.75;;;20.73;63.27
43155;BME280;34212;51.018;13.586;2023-07-31T23:07:53;96819.50;;;20.70;63.68
43155;BME280;34212;51.018;13.586;2023-07-31T23:12:55;96826.28;;;20.67;63.98
43155;BME280;34212;51.018;13.586;2023-07-31T23:17:56;96812.44;;;20.64;64.45
43155;BME280;34212;51.018;13.586;2023-07-31T23:22:58;96790.22;;;20.51;64.98
43155;BME280;34212;51.018;13.586;2023-07-31T23:27:59;96794.78;;;20.46;65.23
43155;BME280;34212;51.018;13.586;2023-07-31T23:33:01;96775.28;;;20.39;65.68
43155;BME280;34212;51.018;13.586;2023-07-31T23:38:03;96764.16;;;20.35;65.89
43155;BME280;34212;51.018;13.586;2023-07-31T23:43:04;96755.22;;;20.29;66.30
43155;BME280;34212;51.018;13.586;2023-07-31T23:48:06;96752.78;;;20.28;66.57
43155;BME280;34212;51.018;13.586;2023-07-31T23:53:07;96746.25;;;20.24;66.79
43155;BME280;34212;51.018;13.586;2023-07-31T23:58:09;96732.22;;;20.22;67.07
